sensor_id;sensor_type;location;lat;lon;timestamp;temperature;humidity
21502;DHT22;27639;48.674;9.242;2022-11-15T00:02:06;10.40;63.80
21502;DHT22;27639;48.674;9.242;2022-11-15T00:04:32;10.40;63.80
21502;DHT22;27639;48.674;9.242;2022-11-15T00:06:57;10.40;63.80
21502;DHT22;27639;48.674;9.242;2022-11-15T00:09:23;10.50;63.90
21502;DHT22;27639;48.674;9.242;2022-11-15T00:11:48;10.50;63.80
21502;DHT22;27639;48.674;9.242;2022-11-15T00:14:14;10.50;63.70
21502;DHT22;27639;48.674;9.242;2022-11-15T00:16:39;10.50;63.60
21502;DHT22;27639;48.674;9.242;2022-11-15T00:19:05;10.50;63.60
21502;DHT22;27639;48.674;9.242;2022-11-15T00:21:30;10.50;63.70
21502;DHT22;27639;48.674;9.242;2022-11-15T00:23:56;10.60;63.70
21502;DHT22;27639;48.674;9.242;2022-11-15T00:26:21;10.60;63.60
21502;DHT22;27639;48.674;9.242;2022-11-15T00:28:47;10.60;63.60
21502;DHT22;27639;48.674;9.242;2022-11-15T00:31:13;10.60;63.60
21502;DHT22;27639;48.674;9.242;2022-11-15T00:33:39;10.60;63.50
21502;DHT22;27639;48.674;9.242;2022-11-15T00:36:09;10.60;63.60
21502;DHT22;27639;48.674;9.242;2022-11-15T00:38:38;10.50;63.40
21502;DHT22;27639;48.674;9.242;2022-11-15T00:41:04;10.50;63.30
21502;DHT22;27639;48.674;9.242;2022-11-15T00:43:31;10.60;63.50
21502;DHT22;27639;48.674;9.242;2022-11-15T00:45:57;10.60;63.40
21502;DHT22;27639;48.674;9.242;2022-11-15T00:48:22;10.50;63.30
21502;DHT22;27639;48.674;9.242;2022-11-15T00:50:49;10.50;63.40
21502;DHT22;27639;48.674;9.242;2022-11-15T00:53:15;10.50;63.40
21502;DHT22;27639;48.674;9.242;2022-11-15T00:55:40;10.50;63.40
21502;DHT22;27639;48.674;9.242;2022-11-15T00:58:06;10.40;63.30
21502;DHT22;27639;48.674;9.242;2022-11-15T01:00:32;10.50;63.40
21502;DHT22;27639;48.674;9.242;2022-11-15T01:02:57;10.40;63.20
21502;DHT22;27639;48.674;9.242;2022-11-15T01:05:23;10.50;63.20
21502;DHT22;27639;48.674;9.242;2022-11-15T01:07:55;10.50;63.00
21502;DHT22;27639;48.674;9.242;2022-11-15T01:10:22;10.50;62.80
21502;DHT22;27639;48.674;9.242;2022-11-15T01:12:49;10.50;62.90
21502;DHT22;27639;48.674;9.242;2022-11-15T01:15:15;10.40;62.80
21502;DHT22;27639;48.674;9.242;2022-11-15T01:17:41;10.50;62.90
21502;DHT22;27639;48.674;9.242;2022-11-15T01:20:07;10.40;62.70
21502;DHT22;27639;48.674;9.242;2022-11-15T01:22:33;10.40;62.50
21502;DHT22;27639;48.674;9.242;2022-11-15T01:24:58;10.40;62.60
21502;DHT22;27639;48.674;9.242;2022-11-15T01:27:24;10.30;62.50
21502;DHT22;27639;48.674;9.242;2022-11-15T01:29:50;10.20;62.40
21502;DHT22;27639;48.674;9.242;2022-11-15T01:32:15;10.20;62.60
21502;DHT22;27639;48.674;9.242;2022-11-15T01:34:41;10.10;62.70
21502;DHT22;27639;48.674;9.242;2022-11-15T01:37:07;10.00;62.80
21502;DHT22;27639;48.674;9.242;2022-11-15T01:39:32;10.00;62.80
21502;DHT22;27639;48.674;9.242;2022-11-15T01:41:58;9.90;64.10
21502;DHT22;27639;48.674;9.242;2022-11-15T01:44:48;9.80;64.20
21502;DHT22;27639;48.674;9.242;2022-11-15T01:47:20;9.80;64.40
21502;DHT22;27639;48.674;9.242;2022-11-15T01:52:31;9.80;64.50
21502;DHT22;27639;48.674;9.242;2022-11-15T01:55:05;9.80;64.60
21502;DHT22;27639;48.674;9.242;2022-11-15T01:57:33;9.80;64.60
21502;DHT22;27639;48.674;9.242;2022-11-15T02:00:00;9.80;64.60
21502;DHT22;27639;48.674;9.242;2022-11-15T02:02:26;9.80;64.60
21502;DHT22;27639;48.674;9.242;2022-11-15T02:04:52;9.80;64.50
21502;DHT22;27639;48.674;9.242;2022-11-15T02:07:20;9.70;64.30
21502;DHT22;27639;48.674;9.242;2022-11-15T02:09:46;9.80;64.50
21502;DHT22;27639;48.674;9.242;2022-11-15T02:12:16;9.70;64.30
21502;DHT22;27639;48.674;9.242;2022-11-15T02:14:47;9.60;64.30
21502;DHT22;27639;48.674;9.242;2022-11-15T02:34:08;9.50;64.90
21502;DHT22;27639;48.674;9.242;2022-11-15T02:37:03;9.50;65.10
21502;DHT22;27639;48.674;9.242;2022-11-15T02:42:14;9.50;65.10
21502;DHT22;27639;48.674;9.242;2022-11-15T02:45:04;9.60;64.90
21502;DHT22;27639;48.674;9.242;2022-11-15T02:47:36;9.60;64.90
21502;DHT22;27639;48.674;9.242;2022-11-15T02:50:08;9.60;64.80
21502;DHT22;27639;48.674;9.242;2022-11-15T02:52:35;9.60;64.60
21502;DHT22;27639;48.674;9.242;2022-11-15T02:55:01;9.70;64.70
21502;DHT22;27639;48.674;9.242;2022-11-15T03:00:09;9.70;64.50
21502;DHT22;27639;48.674;9.242;2022-11-15T03:03:10;9.70;64.30
21502;DHT22;27639;48.674;9.242;2022-11-15T03:05:51;9.70;64.20
21502;DHT22;27639;48.674;9.242;2022-11-15T03:08:34;9.60;64.60
21502;DHT22;27639;48.674;9.242;2022-11-15T03:11:10;9.60;64.60
21502;DHT22;27639;48.674;9.242;2022-11-15T03:19:02;9.60;64.70
21502;DHT22;27639;48.674;9.242;2022-11-15T03:21:32;9.60;65.60
21502;DHT22;27639;48.674;9.242;2022-11-15T03:24:02;9.60;64.80
21502;DHT22;27639;48.674;9.242;2022-11-15T03:26:29;9.60;64.70
21502;DHT22;27639;48.674;9.242;2022-11-15T03:29:02;9.60;64.80
21502;DHT22;27639;48.674;9.242;2022-11-15T03:31:31;9.60;64.60
21502;DHT22;27639;48.674;9.242;2022-11-15T03:34:41;9.50;64.40
21502;DHT22;27639;48.674;9.242;2022-11-15T03:37:10;9.50;64.40
21502;DHT22;27639;48.674;9.242;2022-11-15T03:39:37;9.60;64.80
21502;DHT22;27639;48.674;9.242;2022-11-15T03:44:48;9.60;64.40
21502;DHT22;27639;48.674;9.242;2022-11-15T03:47:26;9.50;64.40
21502;DHT22;27639;48.674;9.242;2022-11-15T03:49:57;9.50;64.60
21502;DHT22;27639;48.674;9.242;2022-11-15T03:52:24;9.50;64.40
21502;DHT22;27639;48.674;9.242;2022-11-15T03:54:54;9.50;64.50
21502;DHT22;27639;48.674;9.242;2022-11-15T03:57:20;9.50;64.40
21502;DHT22;27639;48.674;9.242;2022-11-15T03:59:46;9.50;64.60
21502;DHT22;27639;48.674;9.242;2022-11-15T04:02:12;9.50;64.60
21502;DHT22;27639;48.674;9.242;2022-11-15T04:04:37;9.50;64.50
21502;DHT22;27639;48.674;9.242;2022-11-15T04:07:03;9.50;64.60
21502;DHT22;27639;48.674;9.242;2022-11-15T04:09:29;9.40;64.50
21502;DHT22;27639;48.674;9.242;2022-11-15T04:11:54;9.50;64.60
21502;DHT22;27639;48.674;9.242;2022-11-15T04:14:20;9.50;64.70
21502;DHT22;27639;48.674;9.242;2022-11-15T04:16:46;9.50;64.60
21502;DHT22;27639;48.674;9.242;2022-11-15T04:19:11;9.50;64.50
21502;DHT22;27639;48.674;9.242;2022-11-15T04:21:56;9.40;64.50
21502;DHT22;27639;48.674;9.242;2022-11-15T04:24:39;9.40;64.60
21502;DHT22;27639;48.674;9.242;2022-11-15T04:27:05;9.30;64.60
21502;DHT22;27639;48.674;9.242;2022-11-15T04:29:31;9.30;65.40
21502;DHT22;27639;48.674;9.242;2022-11-15T04:32:04;9.30;64.70
21502;DHT22;27639;48.674;9.242;2022-11-15T04:34:30;9.30;64.70
21502;DHT22;27639;48.674;9.242;2022-11-15T04:36:56;9.30;65.50
21502;DHT22;27639;48.674;9.242;2022-11-15T04:39:36;9.20;64.60
21502;DHT22;27639;48.674;9.242;2022-11-15T04:42:02;9.30;64.90
21502;DHT22;27639;48.674;9.242;2022-11-15T04:44:28;9.20;64.80
21502;DHT22;27639;48.674;9.242;2022-11-15T04:46:53;9.20;64.80
21502;DHT22;27639;48.674;9.242;2022-11-15T04:49:19;9.20;64.80
21502;DHT22;27639;48.674;9.242;2022-11-15T04:51:45;9.20;64.80
21502;DHT22;27639;48.674;9.242;2022-11-15T04:54:10;9.20;64.80
21502;DHT22;27639;48.674;9.242;2022-11-15T04:56:36;9.20;64.80
21502;DHT22;27639;48.674;9.242;2022-11-15T04:59:01;9.20;64.80
21502;DHT22;27639;48.674;9.242;2022-11-15T05:01:27;9.30;64.90
21502;DHT22;27639;48.674;9.242;2022-11-15T05:03:53;9.30;64.90
21502;DHT22;27639;48.674;9.242;2022-11-15T05:06:37;9.20;64.80
21502;DHT22;27639;48.674;9.242;2022-11-15T05:09:03;9.20;64.90
21502;DHT22;27639;48.674;9.242;2022-11-15T05:11:28;9.20;64.90
21502;DHT22;27639;48.674;9.242;2022-11-15T05:13:54;9.20;64.90
21502;DHT22;27639;48.674;9.242;2022-11-15T05:16:20;9.20;64.80
21502;DHT22;27639;48.674;9.242;2022-11-15T05:18:45;9.20;64.70
21502;DHT22;27639;48.674;9.242;2022-11-15T05:21:14;9.30;64.50
21502;DHT22;27639;48.674;9.242;2022-11-15T05:23:40;9.20;64.20
21502;DHT22;27639;48.674;9.242;2022-11-15T05:26:07;9.20;64.10
21502;DHT22;27639;48.674;9.242;2022-11-15T05:28:33;9.20;64.10
21502;DHT22;27639;48.674;9.242;2022-11-15T05:31:12;9.20;63.90
21502;DHT22;27639;48.674;9.242;2022-11-15T05:33:39;9.10;64.00
21502;DHT22;27639;48.674;9.242;2022-11-15T05:38:37;9.00;64.40
21502;DHT22;27639;48.674;9.242;2022-11-15T05:41:04;8.90;64.60
21502;DHT22;27639;48.674;9.242;2022-11-15T05:43:32;8.90;64.80
21502;DHT22;27639;48.674;9.242;2022-11-15T05:45:59;9.00;65.00
21502;DHT22;27639;48.674;9.242;2022-11-15T05:48:26;9.00;65.10
21502;DHT22;27639;48.674;9.242;2022-11-15T05:50:51;9.00;65.10
21502;DHT22;27639;48.674;9.242;2022-11-15T05:53:19;9.00;65.10
21502;DHT22;27639;48.674;9.242;2022-11-15T05:55:45;9.10;65.30
21502;DHT22;27639;48.674;9.242;2022-11-15T05:58:11;9.10;65.20
21502;DHT22;27639;48.674;9.242;2022-11-15T06:00:36;9.20;65.00
21502;DHT22;27639;48.674;9.242;2022-11-15T06:03:02;9.20;64.90
21502;DHT22;27639;48.674;9.242;2022-11-15T06:05:28;9.20;64.80
21502;DHT22;27639;48.674;9.242;2022-11-15T06:07:57;9.20;64.80
21502;DHT22;27639;48.674;9.242;2022-11-15T06:10:24;9.10;64.80
21502;DHT22;27639;48.674;9.242;2022-11-15T06:13:00;9.10;64.80
21502;DHT22;27639;48.674;9.242;2022-11-15T06:15:26;9.00;64.80
21502;DHT22;27639;48.674;9.242;2022-11-15T06:17:52;9.00;64.70
21502;DHT22;27639;48.674;9.242;2022-11-15T06:20:17;9.00;64.90
21502;DHT22;27639;48.674;9.242;2022-11-15T06:22:43;9.00;65.00
21502;DHT22;27639;48.674;9.242;2022-11-15T06:25:09;9.00;65.10
21502;DHT22;27639;48.674;9.242;2022-11-15T06:27:34;9.00;65.10
21502;DHT22;27639;48.674;9.242;2022-11-15T06:30:00;9.00;65.30
21502;DHT22;27639;48.674;9.242;2022-11-15T06:32:25;9.00;65.10
21502;DHT22;27639;48.674;9.242;2022-11-15T06:34:51;9.00;65.10
21502;DHT22;27639;48.674;9.242;2022-11-15T06:37:17;9.10;65.00
21502;DHT22;27639;48.674;9.242;2022-11-15T06:39:42;9.00;64.90
21502;DHT22;27639;48.674;9.242;2022-11-15T06:42:08;9.00;65.80
21502;DHT22;27639;48.674;9.242;2022-11-15T06:44:34;9.00;65.00
21502;DHT22;27639;48.674;9.242;2022-11-15T06:46:59;9.00;65.00
21502;DHT22;27639;48.674;9.242;2022-11-15T06:49:25;9.00;65.10
21502;DHT22;27639;48.674;9.242;2022-11-15T06:51:51;9.00;65.10
21502;DHT22;27639;48.674;9.242;2022-11-15T06:54:16;9.00;65.30
21502;DHT22;27639;48.674;9.242;2022-11-15T06:56:42;8.90;65.30
21502;DHT22;27639;48.674;9.242;2022-11-15T06:59:07;8.90;65.50
21502;DHT22;27639;48.674;9.242;2022-11-15T07:01:33;8.90;65.40
21502;DHT22;27639;48.674;9.242;2022-11-15T07:03:58;9.00;65.50
21502;DHT22;27639;48.674;9.242;2022-11-15T07:06:24;9.10;65.50
21502;DHT22;27639;48.674;9.242;2022-11-15T07:08:49;9.10;65.50
21502;DHT22;27639;48.674;9.242;2022-11-15T07:11:15;9.10;65.60
21502;DHT22;27639;48.674;9.242;2022-11-15T07:13:41;9.10;65.70
21502;DHT22;27639;48.674;9.242;2022-11-15T07:16:08;9.10;65.70
21502;DHT22;27639;48.674;9.242;2022-11-15T07:18:35;9.20;65.80
21502;DHT22;27639;48.674;9.242;2022-11-15T07:21:06;9.20;65.80
21502;DHT22;27639;48.674;9.242;2022-11-15T07:23:32;9.30;65.80
21502;DHT22;27639;48.674;9.242;2022-11-15T07:25:58;9.30;65.90
21502;DHT22;27639;48.674;9.242;2022-11-15T07:28:25;9.40;65.90
21502;DHT22;27639;48.674;9.242;2022-11-15T07:30:51;9.40;65.70
21502;DHT22;27639;48.674;9.242;2022-11-15T07:33:16;9.40;65.70
21502;DHT22;27639;48.674;9.242;2022-11-15T07:35:42;9.50;65.70
21502;DHT22;27639;48.674;9.242;2022-11-15T07:38:08;9.50;65.60
21502;DHT22;27639;48.674;9.242;2022-11-15T07:40:34;9.50;65.90
21502;DHT22;27639;48.674;9.242;2022-11-15T07:43:01;9.60;65.90
21502;DHT22;27639;48.674;9.242;2022-11-15T07:45:26;9.60;66.10
21502;DHT22;27639;48.674;9.242;2022-11-15T07:47:52;9.70;66.40
21502;DHT22;27639;48.674;9.242;2022-11-15T07:50:18;9.70;66.60
21502;DHT22;27639;48.674;9.242;2022-11-15T07:52:45;9.70;66.70
21502;DHT22;27639;48.674;9.242;2022-11-15T07:55:11;9.80;66.80
21502;DHT22;27639;48.674;9.242;2022-11-15T07:57:37;9.90;66.90
21502;DHT22;27639;48.674;9.242;2022-11-15T08:00:06;10.00;65.80
21502;DHT22;27639;48.674;9.242;2022-11-15T08:02:32;10.20;66.00
21502;DHT22;27639;48.674;9.242;2022-11-15T08:04:57;10.30;66.10
21502;DHT22;27639;48.674;9.242;2022-11-15T08:07:24;10.40;66.10
21502;DHT22;27639;48.674;9.242;2022-11-15T08:09:49;10.50;65.90
21502;DHT22;27639;48.674;9.242;2022-11-15T08:12:15;10.60;65.90
21502;DHT22;27639;48.674;9.242;2022-11-15T08:14:40;10.70;66.50
21502;DHT22;27639;48.674;9.242;2022-11-15T08:17:06;10.80;65.50
21502;DHT22;27639;48.674;9.242;2022-11-15T08:19:32;10.90;65.40
21502;DHT22;27639;48.674;9.242;2022-11-15T08:21:57;11.10;65.60
21502;DHT22;27639;48.674;9.242;2022-11-15T08:24:23;11.10;65.30
21502;DHT22;27639;48.674;9.242;2022-11-15T08:26:48;11.20;65.10
21502;DHT22;27639;48.674;9.242;2022-11-15T08:29:14;11.30;65.10
21502;DHT22;27639;48.674;9.242;2022-11-15T08:31:39;11.30;65.00
21502;DHT22;27639;48.674;9.242;2022-11-15T08:34:06;11.40;65.00
21502;DHT22;27639;48.674;9.242;2022-11-15T08:36:31;11.40;65.10
21502;DHT22;27639;48.674;9.242;2022-11-15T08:38:57;11.40;65.20
21502;DHT22;27639;48.674;9.242;2022-11-15T08:41:34;11.50;65.20
21502;DHT22;27639;48.674;9.242;2022-11-15T08:44:01;11.50;64.90
21502;DHT22;27639;48.674;9.242;2022-11-15T08:46:27;11.60;65.00
21502;DHT22;27639;48.674;9.242;2022-11-15T08:48:52;11.70;65.10
21502;DHT22;27639;48.674;9.242;2022-11-15T08:51:18;11.80;65.00
21502;DHT22;27639;48.674;9.242;2022-11-15T08:53:44;11.90;65.00
21502;DHT22;27639;48.674;9.242;2022-11-15T08:56:11;12.00;64.90
21502;DHT22;27639;48.674;9.242;2022-11-15T08:58:38;12.10;64.90
21502;DHT22;27639;48.674;9.242;2022-11-15T09:01:04;12.10;64.60
21502;DHT22;27639;48.674;9.242;2022-11-15T09:03:30;12.20;64.20
21502;DHT22;27639;48.674;9.242;2022-11-15T09:05:57;12.30;64.30
21502;DHT22;27639;48.674;9.242;2022-11-15T09:08:24;12.40;63.80
21502;DHT22;27639;48.674;9.242;2022-11-15T09:10:50;12.50;63.20
21502;DHT22;27639;48.674;9.242;2022-11-15T09:13:16;12.60;62.80
21502;DHT22;27639;48.674;9.242;2022-11-15T09:15:41;12.70;62.30
21502;DHT22;27639;48.674;9.242;2022-11-15T09:18:07;12.80;62.20
21502;DHT22;27639;48.674;9.242;2022-11-15T09:20:33;12.80;62.00
21502;DHT22;27639;48.674;9.242;2022-11-15T09:23:02;12.90;62.00
21502;DHT22;27639;48.674;9.242;2022-11-15T09:25:28;12.90;62.00
21502;DHT22;27639;48.674;9.242;2022-11-15T09:27:54;13.00;62.10
21502;DHT22;27639;48.674;9.242;2022-11-15T09:30:20;13.00;62.10
21502;DHT22;27639;48.674;9.242;2022-11-15T09:32:45;13.10;62.20
21502;DHT22;27639;48.674;9.242;2022-11-15T09:35:11;13.10;62.50
21502;DHT22;27639;48.674;9.242;2022-11-15T09:37:36;13.20;62.80
21502;DHT22;27639;48.674;9.242;2022-11-15T09:40:03;13.20;62.50
21502;DHT22;27639;48.674;9.242;2022-11-15T09:45:23;13.50;62.70
21502;DHT22;27639;48.674;9.242;2022-11-15T09:50:47;13.80;62.70
21502;DHT22;27639;48.674;9.242;2022-11-15T09:56:13;14.00;62.00
21502;DHT22;27639;48.674;9.242;2022-11-15T10:04:14;14.30;60.90
21502;DHT22;27639;48.674;9.242;2022-11-15T10:06:44;14.30;61.00
21502;DHT22;27639;48.674;9.242;2022-11-15T10:09:19;14.30;60.80
21502;DHT22;27639;48.674;9.242;2022-11-15T10:11:46;14.40;60.60
21502;DHT22;27639;48.674;9.242;2022-11-15T10:14:31;14.40;60.50
21502;DHT22;27639;48.674;9.242;2022-11-15T10:22:47;14.50;60.50
21502;DHT22;27639;48.674;9.242;2022-11-15T10:25:31;14.60;60.90
21502;DHT22;27639;48.674;9.242;2022-11-15T10:28:09;14.60;60.60
21502;DHT22;27639;48.674;9.242;2022-11-15T10:30:38;14.60;60.80
21502;DHT22;27639;48.674;9.242;2022-11-15T10:35:39;14.80;60.40
21502;DHT22;27639;48.674;9.242;2022-11-15T10:38:07;14.80;60.40
21502;DHT22;27639;48.674;9.242;2022-11-15T10:40:33;14.80;60.40
21502;DHT22;27639;48.674;9.242;2022-11-15T10:45:39;14.90;60.20
21502;DHT22;27639;48.674;9.242;2022-11-15T10:50:37;15.10;60.10
21502;DHT22;27639;48.674;9.242;2022-11-15T10:53:03;15.20;60.20
21502;DHT22;27639;48.674;9.242;2022-11-15T10:55:31;15.20;60.10
21502;DHT22;27639;48.674;9.242;2022-11-15T10:58:06;15.20;60.20
21502;DHT22;27639;48.674;9.242;2022-11-15T11:00:46;15.30;60.30
21502;DHT22;27639;48.674;9.242;2022-11-15T11:03:34;15.30;60.60
21502;DHT22;27639;48.674;9.242;2022-11-15T11:08:34;15.40;60.80
21502;DHT22;27639;48.674;9.242;2022-11-15T11:11:02;15.50;61.10
21502;DHT22;27639;48.674;9.242;2022-11-15T11:13:36;15.60;61.20
21502;DHT22;27639;48.674;9.242;2022-11-15T11:19:18;15.60;61.30
21502;DHT22;27639;48.674;9.242;2022-11-15T11:24:54;15.60;61.20
21502;DHT22;27639;48.674;9.242;2022-11-15T11:27:42;15.70;61.30
21502;DHT22;27639;48.674;9.242;2022-11-15T11:35:55;15.80;61.30
21502;DHT22;27639;48.674;9.242;2022-11-15T11:38:32;15.90;61.00
21502;DHT22;27639;48.674;9.242;2022-11-15T11:43:55;15.90;60.80
21502;DHT22;27639;48.674;9.242;2022-11-15T11:46:44;16.00;60.70
21502;DHT22;27639;48.674;9.242;2022-11-15T11:52:01;16.00;60.40
21502;DHT22;27639;48.674;9.242;2022-11-15T11:54:52;16.00;60.50
21502;DHT22;27639;48.674;9.242;2022-11-15T11:57:33;16.00;60.40
21502;DHT22;27639;48.674;9.242;2022-11-15T12:00:19;16.00;60.60
21502;DHT22;27639;48.674;9.242;2022-11-15T12:05:33;16.20;60.20
21502;DHT22;27639;48.674;9.242;2022-11-15T12:11:12;16.30;59.90
21502;DHT22;27639;48.674;9.242;2022-11-15T12:13:39;16.30;59.90
21502;DHT22;27639;48.674;9.242;2022-11-15T12:16:22;16.20;60.10
21502;DHT22;27639;48.674;9.242;2022-11-15T12:18:54;16.30;60.10
21502;DHT22;27639;48.674;9.242;2022-11-15T12:24:14;16.50;59.90
21502;DHT22;27639;48.674;9.242;2022-11-15T12:26:48;16.50;59.80
21502;DHT22;27639;48.674;9.242;2022-11-15T12:29:31;16.50;59.60
21502;DHT22;27639;48.674;9.242;2022-11-15T12:31:58;16.50;59.20
21502;DHT22;27639;48.674;9.242;2022-11-15T12:34:40;16.50;59.20
21502;DHT22;27639;48.674;9.242;2022-11-15T12:40:32;16.60;59.20
21502;DHT22;27639;48.674;9.242;2022-11-15T12:45:40;16.60;59.50
21502;DHT22;27639;48.674;9.242;2022-11-15T12:50:56;16.60;59.90
21502;DHT22;27639;48.674;9.242;2022-11-15T13:04:13;16.60;58.80
21502;DHT22;27639;48.674;9.242;2022-11-15T13:14:58;16.70;58.40
21502;DHT22;27639;48.674;9.242;2022-11-15T13:27:47;16.70;58.20
21502;DHT22;27639;48.674;9.242;2022-11-15T13:30:28;16.80;58.20
21502;DHT22;27639;48.674;9.242;2022-11-15T13:32:55;16.70;57.90
21502;DHT22;27639;48.674;9.242;2022-11-15T13:35:26;16.80;58.10
21502;DHT22;27639;48.674;9.242;2022-11-15T13:37:53;16.80;58.20
21502;DHT22;27639;48.674;9.242;2022-11-15T13:40:23;16.80;58.00
21502;DHT22;27639;48.674;9.242;2022-11-15T13:42:50;16.70;57.80
21502;DHT22;27639;48.674;9.242;2022-11-15T13:45:18;16.70;58.10
21502;DHT22;27639;48.674;9.242;2022-11-15T13:47:43;16.60;58.10
21502;DHT22;27639;48.674;9.242;2022-11-15T13:50:12;16.60;58.20
21502;DHT22;27639;48.674;9.242;2022-11-15T13:52:40;16.50;58.20
21502;DHT22;27639;48.674;9.242;2022-11-15T13:57:44;16.40;58.30
21502;DHT22;27639;48.674;9.242;2022-11-15T14:00:38;16.40;58.40
21502;DHT22;27639;48.674;9.242;2022-11-15T14:03:24;16.40;58.50
21502;DHT22;27639;48.674;9.242;2022-11-15T14:06:27;16.30;58.70
21502;DHT22;27639;48.674;9.242;2022-11-15T14:11:34;16.20;59.00
21502;DHT22;27639;48.674;9.242;2022-11-15T14:16:45;16.20;59.30
21502;DHT22;27639;48.674;9.242;2022-11-15T14:19:32;16.20;59.20
21502;DHT22;27639;48.674;9.242;2022-11-15T14:22:23;16.20;59.20
21502;DHT22;27639;48.674;9.242;2022-11-15T14:27:40;16.10;59.80
21502;DHT22;27639;48.674;9.242;2022-11-15T14:30:07;16.00;60.00
21502;DHT22;27639;48.674;9.242;2022-11-15T14:32:47;16.10;60.10
21502;DHT22;27639;48.674;9.242;2022-11-15T14:35:16;16.10;60.00
21502;DHT22;27639;48.674;9.242;2022-11-15T14:37:43;16.10;60.10
21502;DHT22;27639;48.674;9.242;2022-11-15T14:40:13;16.00;60.20
21502;DHT22;27639;48.674;9.242;2022-11-15T14:42:39;16.00;60.30
21502;DHT22;27639;48.674;9.242;2022-11-15T14:45:28;16.00;60.50
21502;DHT22;27639;48.674;9.242;2022-11-15T14:47:54;15.90;60.60
21502;DHT22;27639;48.674;9.242;2022-11-15T14:50:20;15.90;60.80
21502;DHT22;27639;48.674;9.242;2022-11-15T14:52:47;15.90;60.60
21502;DHT22;27639;48.674;9.242;2022-11-15T14:55:23;15.90;60.60
21502;DHT22;27639;48.674;9.242;2022-11-15T14:57:49;16.00;60.70
21502;DHT22;27639;48.674;9.242;2022-11-15T15:00:15;16.00;60.70
21502;DHT22;27639;48.674;9.242;2022-11-15T15:02:42;16.00;60.40
21502;DHT22;27639;48.674;9.242;2022-11-15T15:05:16;16.00;60.30
21502;DHT22;27639;48.674;9.242;2022-11-15T15:07:43;16.00;60.20
21502;DHT22;27639;48.674;9.242;2022-11-15T15:10:09;16.00;60.30
21502;DHT22;27639;48.674;9.242;2022-11-15T15:12:35;16.00;60.30
21502;DHT22;27639;48.674;9.242;2022-11-15T15:15:01;16.10;60.60
21502;DHT22;27639;48.674;9.242;2022-11-15T15:17:26;16.10;60.80
21502;DHT22;27639;48.674;9.242;2022-11-15T15:19:52;16.00;60.70
21502;DHT22;27639;48.674;9.242;2022-11-15T15:22:19;16.00;60.70
21502;DHT22;27639;48.674;9.242;2022-11-15T15:24:47;16.00;60.80
21502;DHT22;27639;48.674;9.242;2022-11-15T15:27:13;15.80;60.90
21502;DHT22;27639;48.674;9.242;2022-11-15T15:29:39;15.80;61.00
21502;DHT22;27639;48.674;9.242;2022-11-15T15:32:05;15.70;61.00
21502;DHT22;27639;48.674;9.242;2022-11-15T15:34:31;15.80;60.80
21502;DHT22;27639;48.674;9.242;2022-11-15T15:39:51;15.70;60.30
21502;DHT22;27639;48.674;9.242;2022-11-15T15:42:18;15.70;60.30
21502;DHT22;27639;48.674;9.242;2022-11-15T15:44:44;15.80;60.40
21502;DHT22;27639;48.674;9.242;2022-11-15T15:47:12;15.80;60.30
21502;DHT22;27639;48.674;9.242;2022-11-15T15:49:38;15.70;60.20
21502;DHT22;27639;48.674;9.242;2022-11-15T15:52:04;15.70;60.10
21502;DHT22;27639;48.674;9.242;2022-11-15T15:54:30;15.70;60.00
21502;DHT22;27639;48.674;9.242;2022-11-15T15:56:55;15.70;60.00
21502;DHT22;27639;48.674;9.242;2022-11-15T15:59:21;15.70;60.10
21502;DHT22;27639;48.674;9.242;2022-11-15T16:01:46;15.70;60.00
21502;DHT22;27639;48.674;9.242;2022-11-15T16:04:12;15.70;60.10
21502;DHT22;27639;48.674;9.242;2022-11-15T16:06:39;15.70;60.30
21502;DHT22;27639;48.674;9.242;2022-11-15T16:09:09;15.70;60.20
21502;DHT22;27639;48.674;9.242;2022-11-15T16:11:37;15.70;60.40
21502;DHT22;27639;48.674;9.242;2022-11-15T16:14:02;15.60;60.30
21502;DHT22;27639;48.674;9.242;2022-11-15T16:16:28;15.60;60.50
21502;DHT22;27639;48.674;9.242;2022-11-15T16:18:53;15.60;60.70
21502;DHT22;27639;48.674;9.242;2022-11-15T16:21:19;15.60;60.70
21502;DHT22;27639;48.674;9.242;2022-11-15T16:23:45;15.60;60.90
21502;DHT22;27639;48.674;9.242;2022-11-15T16:26:22;15.50;60.90
21502;DHT22;27639;48.674;9.242;2022-11-15T16:28:49;15.50;60.90
21502;DHT22;27639;48.674;9.242;2022-11-15T16:31:14;15.50;61.20
21502;DHT22;27639;48.674;9.242;2022-11-15T16:33:43;15.50;61.30
21502;DHT22;27639;48.674;9.242;2022-11-15T16:38:45;15.40;61.30
21502;DHT22;27639;48.674;9.242;2022-11-15T16:41:11;15.30;61.60
21502;DHT22;27639;48.674;9.242;2022-11-15T16:43:36;15.30;61.90
21502;DHT22;27639;48.674;9.242;2022-11-15T16:46:11;15.20;63.00
21502;DHT22;27639;48.674;9.242;2022-11-15T16:48:38;15.10;62.00
21502;DHT22;27639;48.674;9.242;2022-11-15T16:51:04;15.10;62.00
21502;DHT22;27639;48.674;9.242;2022-11-15T16:53:30;15.10;62.00
21502;DHT22;27639;48.674;9.242;2022-11-15T16:55:56;15.00;62.10
21502;DHT22;27639;48.674;9.242;2022-11-15T16:58:21;15.00;62.40
21502;DHT22;27639;48.674;9.242;2022-11-15T17:00:55;15.00;62.40
21502;DHT22;27639;48.674;9.242;2022-11-15T17:03:22;15.00;62.40
21502;DHT22;27639;48.674;9.242;2022-11-15T17:05:48;15.00;62.60
21502;DHT22;27639;48.674;9.242;2022-11-15T17:08:14;14.90;62.60
21502;DHT22;27639;48.674;9.242;2022-11-15T17:10:39;15.00;62.70
21502;DHT22;27639;48.674;9.242;2022-11-15T17:13:12;15.00;62.80
21502;DHT22;27639;48.674;9.242;2022-11-15T17:15:38;14.90;62.70
21502;DHT22;27639;48.674;9.242;2022-11-15T17:18:04;14.90;62.90
21502;DHT22;27639;48.674;9.242;2022-11-15T17:20:31;14.90;63.00
21502;DHT22;27639;48.674;9.242;2022-11-15T17:22:57;14.80;63.10
21502;DHT22;27639;48.674;9.242;2022-11-15T17:25:22;14.70;63.20
21502;DHT22;27639;48.674;9.242;2022-11-15T17:27:48;14.70;63.40
21502;DHT22;27639;48.674;9.242;2022-11-15T17:30:15;14.70;63.40
21502;DHT22;27639;48.674;9.242;2022-11-15T17:32:42;14.70;63.60
21502;DHT22;27639;48.674;9.242;2022-11-15T17:35:08;14.70;63.60
21502;DHT22;27639;48.674;9.242;2022-11-15T17:37:35;14.70;63.70
21502;DHT22;27639;48.674;9.242;2022-11-15T17:40:01;14.70;63.70
21502;DHT22;27639;48.674;9.242;2022-11-15T17:42:27;14.70;63.80
21502;DHT22;27639;48.674;9.242;2022-11-15T17:44:52;14.60;63.80
21502;DHT22;27639;48.674;9.242;2022-11-15T17:47:18;14.60;63.80
21502;DHT22;27639;48.674;9.242;2022-11-15T17:49:43;14.60;63.80
21502;DHT22;27639;48.674;9.242;2022-11-15T17:52:09;14.60;63.80
21502;DHT22;27639;48.674;9.242;2022-11-15T17:54:35;14.70;63.90
21502;DHT22;27639;48.674;9.242;2022-11-15T17:57:00;14.70;63.90
21502;DHT22;27639;48.674;9.242;2022-11-15T17:59:26;14.70;63.90
21502;DHT22;27639;48.674;9.242;2022-11-15T18:01:51;14.70;63.80
21502;DHT22;27639;48.674;9.242;2022-11-15T18:04:18;14.80;63.80
21502;DHT22;27639;48.674;9.242;2022-11-15T18:06:45;14.80;63.80
21502;DHT22;27639;48.674;9.242;2022-11-15T18:09:10;14.80;63.80
21502;DHT22;27639;48.674;9.242;2022-11-15T18:11:39;14.80;63.80
21502;DHT22;27639;48.674;9.242;2022-11-15T18:14:12;14.80;63.80